Time;durP1;ratioP1;P1;durP2;ratioP2;P2;SDS_P1;SDS_P2;PMS_P1;PMS_P2;Temp;Humidity;BMP_temperature;BMP_pressure;BME280_temperature;BME280_humidity;BME280_pressure;Samples;Min_cycle;Max_cycle;Signal;HPM_P1;HPM_P2
2022/01/08 00:01:58;;;;;;;6.45;4.55;;;;;;;3.53;72.15;95480.91;5088276;28;20025;-79
2022/01/08 00:04:24;;;;;;;6.20;4.55;;;;;;;3.47;72.20;95492.84;5088587;28;20032;-79
2022/01/08 00:06:49;;;;;;;7.43;4.60;;;;;;;3.54;72.06;95486.06;5088401;28;20028;-80
2022/01/08 00:09:15;;;;;;;5.88;4.68;;;;;;;3.57;72.34;95490.25;5090157;28;20031;-80
2022/01/08 00:11:42;;;;;;;6.13;4.55;;;;;;;3.52;71.34;95482.69;5088847;28;20036;-80
2022/01/08 00:14:09;;;;;;;7.15;5.03;;;;;;;3.58;71.80;95479.53;5089801;28;20103;-80
2022/01/08 00:16:37;;;;;;;6.72;4.38;;;;;;;3.58;71.51;95474.22;5089868;28;20065;-80
2022/01/08 00:19:03;;;;;;;6.10;4.40;;;;;;;3.57;71.11;95483.16;5087364;28;20109;-80
2022/01/08 00:21:28;;;;;;;5.55;3.97;;;;;;;3.46;71.28;95480.59;5090118;28;20059;-80
2022/01/08 00:23:54;;;;;;;5.78;4.38;;;;;;;3.55;71.48;95460.38;5088203;28;20032;-81
2022/01/08 00:26:19;;;;;;;7.00;4.28;;;;;;;3.54;71.53;95462.22;5089923;28;20028;-79
2022/01/08 00:28:44;;;;;;;10.80;4.88;;;;;;;3.50;71.53;95458.13;5088412;28;20084;-80
2022/01/08 00:31:10;;;;;;;5.85;4.38;;;;;;;3.55;71.87;95455.06;5089655;28;20027;-79
2022/01/08 00:33:37;;;;;;;7.40;4.47;;;;;;;3.47;71.60;95442.47;5089429;28;20144;-80
2022/01/08 00:36:04;;;;;;;4.90;3.58;;;;;;;3.43;72.01;95443.72;5088923;28;20095;-79
2022/01/08 00:38:29;;;;;;;6.72;4.75;;;;;;;3.36;72.63;95453.16;5089818;28;20049;-81
2022/01/08 00:40:55;;;;;;;6.60;4.72;;;;;;;3.36;72.73;95443.41;5088726;28;20085;-80
2022/01/08 00:43:20;;;;;;;7.35;4.80;;;;;;;3.40;72.50;95444.00;5090519;28;20161;-80
2022/01/08 00:45:46;;;;;;;7.68;4.47;;;;;;;3.45;72.51;95445.25;5088158;28;20384;-79
2022/01/08 00:48:11;;;;;;;11.98;5.80;;;;;;;3.42;72.41;95448.19;5090100;28;20028;-80
2022/01/08 00:50:37;;;;;;;6.40;4.68;;;;;;;3.49;72.29;95445.00;5088505;28;20035;-80
2022/01/08 00:53:02;;;;;;;8.13;4.63;;;;;;;3.43;72.49;95449.03;5088657;28;20035;-80
2022/01/08 00:55:27;;;;;;;6.45;4.57;;;;;;;3.54;71.96;95454.25;5088950;28;20031;-81
2022/01/08 00:57:53;;;;;;;6.72;4.50;;;;;;;3.59;71.89;95444.06;5087711;28;20503;-80
2022/01/08 01:00:18;;;;;;;5.20;3.90;;;;;;;3.48;72.02;95440.69;5089370;28;20540;-80
2022/01/08 01:02:44;;;;;;;6.75;4.70;;;;;;;3.48;72.01;95444.19;5087330;28;20035;-80
2022/01/08 01:05:09;;;;;;;6.30;4.32;;;;;;;3.44;71.93;95446.25;5088772;28;20024;-79
2022/01/08 01:07:35;;;;;;;5.88;4.22;;;;;;;3.38;72.42;95444.13;5087691;28;20415;-80
2022/01/08 01:10:00;;;;;;;6.70;4.50;;;;;;;3.45;72.47;95444.44;5087326;28;20050;-80
2022/01/08 01:12:26;;;;;;;6.45;4.15;;;;;;;3.43;72.25;95433.94;5086701;28;20048;-81
2022/01/08 01:14:51;;;;;;;7.13;4.85;;;;;;;3.50;72.22;95434.25;5069685;28;20020;-80
2022/01/08 01:17:17;;;;;;;6.35;4.43;;;;;;;3.37;72.65;95423.88;5089079;28;20043;-82
2022/01/08 01:19:43;;;;;;;8.70;4.75;;;;;;;3.41;71.95;95420.00;5087775;28;20383;-82
2022/01/08 01:22:08;;;;;;;7.65;4.50;;;;;;;3.36;73.07;95424.00;5088990;28;20847;-80
2022/01/08 01:24:36;;;;;;;6.55;4.47;;;;;;;3.45;71.97;95417.94;5087497;28;20024;-82
2022/01/08 01:43:18;;;;;;;6.75;4.50;;;;;;;3.47;72.42;95400.03;5068933;28;20038;-84
2022/01/08 01:48:22;;;;;;;8.38;4.72;;;;;;;3.49;72.16;95398.13;5067658;28;20035;-84
2022/01/08 01:50:48;;;;;;;6.10;4.20;;;;;;;3.46;72.13;95401.03;5082521;28;20032;-84
2022/01/08 01:53:14;;;;;;;6.97;4.88;;;;;;;3.49;71.78;95394.63;5087066;28;20031;-84
2022/01/08 01:55:41;;;;;;;6.20;4.30;;;;;;;3.41;72.60;95387.31;5078961;28;20024;-84
2022/01/08 01:58:06;;;;;;;5.80;4.28;;;;;;;3.42;72.46;95395.16;5060844;28;20398;-84
2022/01/08 02:00:32;;;;;;;6.32;4.25;;;;;;;3.41;72.51;95382.88;5057534;28;20475;-84
2022/01/08 02:02:59;;;;;;;6.30;4.15;;;;;;;3.45;72.15;95386.09;5065537;28;20028;-85
2022/01/08 02:05:24;;;;;;;9.38;4.30;;;;;;;3.33;73.12;95374.75;5064346;28;20036;-83
2022/01/08 02:07:50;;;;;;;5.40;3.78;;;;;;;3.36;73.04;95370.97;5064776;28;20031;-82
2022/01/08 02:10:15;;;;;;;5.32;3.80;;;;;;;3.25;73.15;95378.06;5066075;28;20036;-83
2022/01/08 02:12:40;;;;;;;6.10;3.67;;;;;;;3.32;73.27;95375.72;5065514;28;20048;-84
2022/01/08 02:15:06;;;;;;;7.70;4.28;;;;;;;3.37;72.98;95375.31;5077156;28;20035;-84
2022/01/08 02:17:32;;;;;;;6.05;3.78;;;;;;;3.33;73.05;95374.75;5085812;28;20063;-84
2022/01/08 02:19:57;;;;;;;5.10;3.40;;;;;;;3.35;73.05;95378.09;5067779;28;20032;-84
2022/01/08 02:22:22;;;;;;;6.07;3.80;;;;;;;3.38;73.04;95369.03;5065891;28;20396;-83
2022/01/08 02:24:48;;;;;;;6.95;3.90;;;;;;;3.30;73.01;95351.16;5063978;28;20043;-83
2022/01/08 02:27:14;;;;;;;5.00;3.70;;;;;;;3.25;73.27;95351.56;5082921;28;20024;-83
2022/01/08 02:29:40;;;;;;;5.07;3.88;;;;;;;3.29;73.43;95341.53;5085152;28;20609;-83
2022/01/08 02:32:15;;;;;;;5.45;3.88;;;;;;;3.33;72.88;95343.78;5084965;28;20032;-84
2022/01/08 02:34:41;;;;;;;6.10;4.07;;;;;;;3.28;73.25;95343.34;5073405;28;20052;-84
2022/01/08 02:37:06;;;;;;;5.55;3.95;;;;;;;3.11;73.37;95338.66;5077887;28;20559;-84
2022/01/08 02:39:38;;;;;;;8.05;3.92;;;;;;;3.16;73.24;95336.47;5086257;28;20387;-84
2022/01/08 02:42:04;;;;;;;6.28;4.05;;;;;;;3.22;73.52;95331.44;5083601;28;20089;-84
2022/01/08 02:44:29;;;;;;;6.07;4.18;;;;;;;3.18;73.60;95335.34;5085409;28;20032;-84
2022/01/08 02:46:55;;;;;;;6.28;4.10;;;;;;;3.21;73.49;95328.91;5083531;28;20024;-84
2022/01/08 02:49:23;;;;;;;4.65;4.03;;;;;;;3.19;73.79;95328.25;5064901;28;20073;-83
2022/01/08 02:51:49;;;;;;;7.30;4.57;;;;;;;3.20;73.61;95320.16;5063943;28;20039;-84
2022/01/08 02:54:15;;;;;;;5.63;4.32;;;;;;;3.26;73.29;95320.56;5062784;28;20032;-83
2022/01/08 02:56:44;;;;;;;5.55;4.00;;;;;;;3.24;73.46;95326.00;5085280;28;20032;-83
2022/01/08 02:59:10;;;;;;;7.40;4.45;;;;;;;3.31;73.14;95316.56;5084278;28;20502;-84
2022/01/08 03:01:35;;;;;;;5.82;3.88;;;;;;;3.33;72.76;95319.06;5067461;28;20107;-84
2022/01/08 03:04:01;;;;;;;8.38;4.57;;;;;;;3.35;72.89;95325.09;5068449;28;20047;-85
2022/01/08 03:06:26;;;;;;;5.85;3.95;;;;;;;3.28;72.92;95329.22;5068041;28;20035;-84
2022/01/08 03:08:52;;;;;;;7.50;4.13;;;;;;;3.32;73.32;95328.00;5085320;28;20024;-84
2022/01/08 03:11:17;;;;;;;6.38;4.00;;;;;;;3.30;73.09;95328.16;5085588;28;20044;-84
2022/01/08 03:13:43;;;;;;;5.43;3.85;;;;;;;3.39;73.40;95325.63;5083296;28;20043;-84
2022/01/08 03:16:08;;;;;;;5.78;3.55;;;;;;;3.39;72.64;95322.97;5076072;28;20333;-85
2022/01/08 03:18:36;;;;;;;5.05;3.75;;;;;;;3.45;72.42;95325.13;5077954;28;20113;-85
2022/01/08 03:21:11;;;;;;;7.80;4.30;;;;;;;3.42;72.55;95330.66;5084912;28;20020;-83
2022/01/08 03:23:43;;;;;;;5.72;3.75;;;;;;;3.42;73.27;95320.06;5084651;28;20032;-83
2022/01/08 03:26:09;;;;;;;5.63;3.75;;;;;;;3.42;72.83;95322.72;5084603;28;20043;-84
2022/01/08 03:28:34;;;;;;;6.78;3.88;;;;;;;3.49;72.54;95326.50;5071061;28;20043;-85
2022/01/08 03:31:00;;;;;;;6.15;4.07;;;;;;;3.51;72.98;95321.06;5089795;28;20141;-84
2022/01/08 03:33:25;;;;;;;5.05;3.38;;;;;;;3.44;72.71;95315.47;5089012;28;20068;-84
2022/01/08 03:35:51;;;;;;;5.07;3.28;;;;;;;3.48;72.76;95324.84;5069808;28;20033;-85
2022/01/08 03:38:16;;;;;;;4.05;3.47;;;;;;;3.38;72.68;95316.00;5088529;28;20028;-84
2022/01/08 03:40:41;;;;;;;5.38;3.63;;;;;;;3.35;73.29;95314.47;5090399;28;20032;-85
2022/01/08 03:43:07;;;;;;;4.32;3.40;;;;;;;3.26;73.03;95305.50;5089319;28;20078;-84
2022/01/08 03:45:32;;;;;;;6.68;3.50;;;;;;;3.28;73.35;95306.22;5090164;28;20016;-84
2022/01/08 03:50:26;;;;;;;4.72;3.38;;;;;;;3.30;73.42;95291.03;5089482;28;20036;-85
2022/01/08 03:52:51;;;;;;;5.72;3.28;;;;;;;3.21;73.63;95281.22;5085783;28;20033;-84
2022/01/08 03:55:17;;;;;;;5.47;3.72;;;;;;;3.24;73.57;95291.53;5068198;28;20036;-83
2022/01/08 03:57:42;;;;;;;5.50;3.70;;;;;;;3.16;74.09;95289.56;5067053;28;20029;-83
2022/01/08 04:00:08;;;;;;;5.00;3.38;;;;;;;3.05;74.32;95282.56;5069281;28;20036;-83
2022/01/08 04:02:33;;;;;;;5.95;3.65;;;;;;;3.15;74.17;95285.25;5078474;28;20119;-84
2022/01/08 04:04:59;;;;;;;5.82;3.30;;;;;;;3.22;73.90;95288.22;5081855;28;20028;-82
2022/01/08 04:07:24;;;;;;;5.85;3.72;;;;;;;3.23;73.89;95287.22;5088371;28;20020;-83
2022/01/08 04:09:50;;;;;;;4.72;2.97;;;;;;;3.13;73.79;95284.53;5076050;28;20051;-84
2022/01/08 04:12:21;;;;;;;4.90;3.20;;;;;;;3.24;73.80;95293.38;5069152;28;20048;-84
2022/01/08 04:15:00;;;;;;;7.22;3.78;;;;;;;3.22;73.86;95282.91;5067297;28;20036;-84
2022/01/08 04:17:26;;;;;;;5.28;3.33;;;;;;;3.27;73.55;95288.66;5086045;28;20032;-84
2022/01/08 04:19:51;;;;;;;6.10;3.20;;;;;;;3.28;74.25;95292.97;5072774;28;20031;-85
2022/01/08 04:22:17;;;;;;;4.82;3.25;;;;;;;3.23;74.01;95287.22;5087758;28;20063;-85
2022/01/08 04:24:42;;;;;;;5.70;3.75;;;;;;;3.29;74.09;95294.63;5088065;28;20028;-84
2022/01/08 04:27:08;;;;;;;5.03;3.10;;;;;;;3.31;73.96;95290.03;5088473;28;20504;-85
2022/01/08 04:29:33;;;;;;;4.75;3.17;;;;;;;3.32;73.81;95289.06;5088693;28;20016;-83
2022/01/08 04:31:58;;;;;;;4.93;3.42;;;;;;;3.37;73.66;95285.19;5068996;28;20422;-84
2022/01/08 04:34:24;;;;;;;4.93;3.28;;;;;;;3.36;73.63;95278.19;5087589;28;20032;-84
2022/01/08 04:36:49;;;;;;;5.88;3.20;;;;;;;3.39;73.74;95283.22;5080917;28;20021;-85
2022/01/08 04:39:15;;;;;;;5.20;3.42;;;;;;;3.36;74.00;95283.47;5065574;28;20080;-84
2022/01/08 04:41:43;;;;;;;5.38;2.90;;;;;;;3.41;73.56;95286.56;5068801;28;20020;-84
2022/01/08 04:44:09;;;;;;;4.10;2.92;;;;;;;3.34;73.64;95287.13;5066122;28;20481;-84
2022/01/08 04:46:35;;;;;;;5.00;2.85;;;;;;;3.25;74.14;95287.94;5068240;28;20032;-84
2022/01/08 04:49:00;;;;;;;3.65;2.72;;;;;;;3.27;74.15;95280.69;5067076;28;20142;-85
2022/01/08 04:51:25;;;;;;;4.75;3.42;;;;;;;3.26;74.49;95284.31;5068505;28;20044;-83
2022/01/08 04:53:51;;;;;;;4.78;3.53;;;;;;;3.29;74.13;95278.72;5073233;28;20078;-83
2022/01/08 04:56:16;;;;;;;4.07;2.88;;;;;;;3.31;74.12;95271.50;5067633;28;20487;-82
2022/01/08 04:58:42;;;;;;;3.75;2.67;;;;;;;3.26;74.07;95270.19;5066253;28;20028;-83
2022/01/08 05:01:17;;;;;;;4.70;2.90;;;;;;;3.22;74.27;95277.59;5066106;28;20039;-83
2022/01/08 05:03:42;;;;;;;3.85;2.72;;;;;;;3.29;73.97;95276.06;5067067;28;20020;-83
2022/01/08 05:06:08;;;;;;;4.05;2.75;;;;;;;3.23;74.25;95276.63;5073618;28;20407;-84
2022/01/08 05:08:33;;;;;;;4.45;2.72;;;;;;;3.25;74.39;95282.63;5084875;28;20028;-84
2022/01/08 05:10:59;;;;;;;4.65;2.63;;;;;;;3.33;73.71;95285.44;5065777;28;20035;-84
2022/01/08 05:13:24;;;;;;;3.85;2.80;;;;;;;3.37;74.02;95287.84;5081177;28;20028;-84
2022/01/08 05:15:50;;;;;;;3.75;2.70;;;;;;;3.33;73.30;95279.31;5080198;28;20020;-84
2022/01/08 05:18:15;;;;;;;3.60;2.72;;;;;;;3.39;73.41;95284.06;5085135;28;20028;-85
2022/01/08 05:20:45;;;;;;;3.70;2.75;;;;;;;3.42;73.53;95278.47;5087915;28;20025;-85
2022/01/08 05:23:10;;;;;;;5.40;2.75;;;;;;;3.51;73.59;95278.66;5087239;28;20123;-84
2022/01/08 05:25:36;;;;;;;3.97;3.03;;;;;;;3.47;73.41;95270.13;5103476;28;20020;-83
2022/01/08 05:28:01;;;;;;;4.03;2.67;;;;;;;3.57;72.78;95278.94;5090978;28;20020;-85
2022/01/08 05:30:27;;;;;;;4.00;2.92;;;;;;;3.55;73.02;95277.38;5084861;28;20025;-84
2022/01/08 05:32:53;;;;;;;4.45;3.15;;;;;;;3.61;73.31;95276.81;5073847;28;20031;-85
2022/01/08 05:35:19;;;;;;;5.05;3.17;;;;;;;3.63;72.81;95276.72;5086514;28;20493;-83
2022/01/08 05:37:44;;;;;;;4.45;2.83;;;;;;;3.67;73.01;95278.97;5082517;28;20507;-86
2022/01/08 05:40:10;;;;;;;6.43;3.53;;;;;;;3.68;72.80;95272.66;5080610;28;20036;-84
2022/01/08 05:42:36;;;;;;;3.88;2.92;;;;;;;3.69;72.58;95276.16;5087147;28;20036;-83
2022/01/08 05:45:01;;;;;;;4.88;2.90;;;;;;;3.75;72.59;95283.56;5065790;28;20025;-83
2022/01/08 05:47:30;;;;;;;6.05;3.88;;;;;;;3.77;72.22;95270.97;5067561;28;20032;-80
2022/01/08 05:49:55;;;;;;;6.43;4.20;;;;;;;3.77;72.81;95270.97;5065125;28;20032;-81
2022/01/08 05:52:21;;;;;;;6.20;4.28;;;;;;;3.76;72.14;95271.97;5067794;28;20028;-79
2022/01/08 05:54:46;;;;;;;3.97;2.67;;;;;;;3.82;72.67;95266.09;5074988;28;20031;-79
2022/01/08 05:57:12;;;;;;;5.28;3.60;;;;;;;3.76;72.53;95260.50;5069556;28;20020;-80
2022/01/08 05:59:37;;;;;;;4.97;3.30;;;;;;;3.79;72.42;95269.03;5068448;28;20028;-82
2022/01/08 06:02:03;;;;;;;5.28;3.40;;;;;;;3.80;72.47;95249.50;5050737;28;20123;-81
2022/01/08 06:04:29;;;;;;;4.38;3.20;;;;;;;3.85;72.16;95261.50;5082817;28;20028;-83
2022/01/08 06:06:54;;;;;;;4.95;2.70;;;;;;;3.93;71.99;95257.16;5069435;28;20024;-83
2022/01/08 06:09:19;;;;;;;6.30;3.50;;;;;;;3.99;72.10;95258.44;5070771;28;20023;-86
2022/01/08 06:11:45;;;;;;;5.05;3.00;;;;;;;3.99;71.99;95257.59;5066434;28;20325;-82
2022/01/08 06:14:10;;;;;;;4.50;3.28;;;;;;;3.95;71.94;95251.72;5074239;28;20156;-83
2022/01/08 06:16:37;;;;;;;3.95;2.90;;;;;;;3.98;71.99;95256.78;5069974;28;20078;-83
2022/01/08 06:19:08;;;;;;;4.95;2.97;;;;;;;4.02;71.69;95257.31;5068208;28;20024;-84
2022/01/08 06:21:33;;;;;;;4.80;2.90;;;;;;;4.01;72.05;95261.78;5072777;28;20186;-83
2022/01/08 06:23:59;;;;;;;4.22;2.70;;;;;;;3.94;72.76;95260.66;5063268;28;20483;-83
2022/01/08 06:26:24;;;;;;;4.10;2.58;;;;;;;4.05;71.90;95257.88;5064770;28;20028;-83
2022/01/08 06:28:51;;;;;;;3.97;2.95;;;;;;;4.13;71.46;95258.97;5078779;28;20035;-83
2022/01/08 06:31:18;;;;;;;4.82;3.10;;;;;;;4.11;71.49;95259.09;5084676;28;20036;-84
2022/01/08 06:33:44;;;;;;;4.85;3.58;;;;;;;4.14;71.34;95250.88;5080526;28;20885;-83
2022/01/08 06:36:09;;;;;;;6.88;3.40;;;;;;;4.14;71.15;95250.03;5065666;28;20028;-83
2022/01/08 06:38:34;;;;;;;4.93;3.05;;;;;;;4.13;71.00;95248.34;5065978;28;20028;-83
2022/01/08 06:41:00;;;;;;;4.65;2.97;;;;;;;4.13;71.35;95251.84;5065985;28;20035;-83
2022/01/08 06:43:25;;;;;;;3.42;2.50;;;;;;;4.17;71.32;95242.63;5047854;28;20420;-83
2022/01/08 06:45:51;;;;;;;3.55;2.60;;;;;;;4.20;71.78;95249.47;5064304;28;20559;-82
2022/01/08 06:48:16;;;;;;;3.83;2.67;;;;;;;4.20;71.37;95247.66;5065918;28;20467;-82
2022/01/08 06:50:41;;;;;;;3.95;2.42;;;;;;;4.19;71.49;95247.81;5079023;28;20070;-82
2022/01/08 06:53:07;;;;;;;4.07;2.38;;;;;;;4.18;71.83;95244.31;5084975;28;20028;-83
2022/01/08 06:55:32;;;;;;;4.07;2.28;;;;;;;4.16;71.63;95240.13;5083657;28;20109;-85
2022/01/08 06:57:59;;;;;;;2.92;2.00;;;;;;;4.21;71.49;95248.47;5084956;28;20020;-85
2022/01/08 07:00:24;;;;;;;3.33;2.45;;;;;;;4.27;71.46;95250.56;5068078;28;20066;-80
2022/01/08 07:02:50;;;;;;;3.90;2.70;;;;;;;4.37;71.14;95247.06;5077082;28;20024;-81
2022/01/08 07:05:15;;;;;;;3.85;2.53;;;;;;;4.40;70.65;95252.09;5068946;28;20032;-82
2022/01/08 07:07:41;;;;;;;3.85;2.78;;;;;;;4.40;70.52;95247.59;5065216;28;20502;-81
2022/01/08 07:10:07;;;;;;;3.58;2.70;;;;;;;4.29;71.14;95245.97;5065907;28;20471;-83
2022/01/08 07:12:33;;;;;;;4.43;3.10;;;;;;;4.26;71.25;95242.75;5046484;28;20501;-80
2022/01/08 07:14:58;;;;;;;4.50;2.90;;;;;;;4.24;70.90;95244.72;5064191;28;20036;-81
2022/01/08 07:17:24;;;;;;;3.92;2.83;;;;;;;4.30;71.25;95244.16;5064852;28;20016;-84
2022/01/08 07:19:49;;;;;;;5.97;2.90;;;;;;;4.40;70.85;95238.81;5065171;28;20029;-82
2022/01/08 07:22:15;;;;;;;3.78;2.72;;;;;;;4.44;70.46;95250.81;5065400;28;20573;-82
2022/01/08 07:24:40;;;;;;;3.88;2.80;;;;;;;4.35;70.85;95239.25;5062687;28;20514;-82
2022/01/08 07:27:06;;;;;;;4.90;3.20;;;;;;;4.37;71.08;95233.81;5081105;28;20028;-82
2022/01/08 07:29:31;;;;;;;5.10;3.20;;;;;;;4.39;70.77;95237.13;5084139;28;20028;-83
2022/01/08 07:31:57;;;;;;;5.40;2.55;;;;;;;4.38;70.65;95238.97;5085832;28;20028;-81
2022/01/08 07:34:22;;;;;;;4.97;3.05;;;;;;;4.49;70.45;95239.75;5083677;28;20040;-81
2022/01/08 07:36:48;;;;;;;4.30;2.95;;;;;;;4.50;70.98;95239.63;5085060;28;20024;-82
2022/01/08 07:39:13;;;;;;;4.50;2.90;;;;;;;4.46;70.01;95238.25;5085670;28;20031;-83
2022/01/08 07:41:39;;;;;;;4.47;2.78;;;;;;;4.57;70.72;95246.03;5084611;28;20020;-84
2022/01/08 07:44:04;;;;;;;4.50;3.15;;;;;;;4.56;70.97;95249.66;5083561;28;20027;-85
2022/01/08 07:46:30;;;;;;;6.22;3.13;;;;;;;4.58;69.97;95242.41;5084358;28;20060;-84
2022/01/08 07:48:55;;;;;;;6.45;3.00;;;;;;;4.64;70.25;95234.84;5068379;28;20799;-82
2022/01/08 07:51:21;;;;;;;4.97;2.92;;;;;;;4.59;70.33;95237.94;5075742;28;20043;-83
2022/01/08 07:53:46;;;;;;;4.25;2.67;;;;;;;4.49;70.35;95243.25;5083175;28;20502;-83
2022/01/08 07:56:12;;;;;;;4.53;3.30;;;;;;;4.68;70.34;95241.53;5084420;28;20032;-81
2022/01/08 07:58:37;;;;;;;4.45;2.85;;;;;;;4.70;70.13;95231.59;5084197;28;20024;-81
2022/01/08 08:01:03;;;;;;;7.30;3.20;;;;;;;4.80;69.96;95239.53;5085321;28;20035;-80
2022/01/08 08:03:28;;;;;;;6.50;3.47;;;;;;;4.87;69.64;95245.13;5081957;28;20024;-80
2022/01/08 08:05:54;;;;;;;4.88;2.88;;;;;;;4.87;69.65;95242.44;5084793;28;20024;-83
2022/01/08 08:08:20;;;;;;;4.90;2.97;;;;;;;4.90;69.71;95245.63;5085194;28;20028;-82
2022/01/08 08:10:50;;;;;;;5.88;3.13;;;;;;;4.94;68.97;95251.50;5085066;28;20042;-82
2022/01/08 08:13:19;;;;;;;7.35;3.58;;;;;;;4.95;69.36;95246.03;5083352;28;20036;-85
2022/01/08 08:15:45;;;;;;;4.53;3.40;;;;;;;5.02;69.50;95245.44;5051642;28;20036;-83
2022/01/08 08:18:11;;;;;;;5.53;3.17;;;;;;;4.97;69.13;95235.25;5068595;28;20034;-84
2022/01/08 08:20:37;;;;;;;7.50;3.33;;;;;;;5.05;68.66;95237.19;5067939;28;20498;-84
2022/01/08 08:23:02;;;;;;;6.22;2.70;;;;;;;4.80;69.55;95234.22;5082025;28;20020;-82
2022/01/08 08:25:27;;;;;;;5.40;2.97;;;;;;;5.05;68.77;95229.19;5084403;28;20035;-82
2022/01/08 08:27:53;;;;;;;5.22;3.03;;;;;;;5.06;69.24;95229.06;5074114;28;20024;-82
2022/01/08 08:30:18;;;;;;;4.07;2.70;;;;;;;5.10;69.12;95228.75;5087879;28;20039;-81
2022/01/08 08:32:44;;;;;;;4.35;2.80;;;;;;;5.01;68.62;95226.03;5086928;28;20035;-82
2022/01/08 08:35:10;;;;;;;5.55;3.03;;;;;;;4.93;68.78;95234.72;5072346;28;20314;-79
2022/01/08 08:37:35;;;;;;;9.43;3.90;;;;;;;5.15;68.07;95221.19;5068107;28;20036;-78
2022/01/08 08:40:03;;;;;;;8.07;2.80;;;;;;;5.11;68.25;95222.47;5084169;28;20036;-79
2022/01/08 08:42:28;;;;;;;5.13;3.17;;;;;;;5.11;68.08;95225.94;5078889;28;20028;-80
2022/01/08 08:44:54;;;;;;;7.55;3.03;;;;;;;5.15;67.98;95227.34;5082884;28;20410;-80
2022/01/08 08:47:19;;;;;;;5.47;3.20;;;;;;;5.04;68.91;95220.41;5084127;28;20035;-80
2022/01/08 08:49:44;;;;;;;4.38;2.78;;;;;;;5.01;69.12;95215.38;5081216;28;20024;-83
2022/01/08 08:52:10;;;;;;;7.43;2.95;;;;;;;4.97;68.46;95219.31;5082089;28;20028;-81
2022/01/08 08:54:35;;;;;;;6.43;3.83;;;;;;;5.00;69.40;95213.69;5085700;28;20140;-80
2022/01/08 08:57:01;;;;;;;5.72;3.00;;;;;;;5.01;69.08;95203.91;5080030;28;20036;-80
2022/01/08 08:59:26;;;;;;;5.63;3.05;;;;;;;5.00;69.41;95211.03;5078821;28;20036;-82
2022/01/08 09:01:52;;;;;;;4.93;2.95;;;;;;;5.14;68.98;95198.25;5063064;28;20081;-80
2022/01/08 09:04:17;;;;;;;4.57;2.80;;;;;;;5.27;69.21;95209.34;5057749;28;20492;-81
2022/01/08 09:06:42;;;;;;;3.63;2.45;;;;;;;5.35;68.17;95199.78;5072628;28;20039;-80
2022/01/08 09:09:08;;;;;;;4.30;2.50;;;;;;;5.24;68.39;95204.31;5064659;28;20028;-81
2022/01/08 09:11:34;;;;;;;3.67;2.60;;;;;;;5.31;68.42;95194.78;5082139;28;20040;-83
2022/01/08 09:14:00;;;;;;;3.90;2.30;;;;;;;5.35;68.29;95203.31;5077146;28;20040;-81
2022/01/08 09:16:25;;;;;;;6.03;2.55;;;;;;;5.47;67.48;95189.75;5086857;28;20032;-82
2022/01/08 09:18:51;;;;;;;6.90;3.03;;;;;;;5.39;68.83;95190.53;5087259;28;20028;-82
2022/01/08 09:21:16;;;;;;;4.28;2.90;;;;;;;5.22;69.02;95185.03;5086618;28;20024;-80
2022/01/08 09:23:42;;;;;;;7.82;2.90;;;;;;;5.44;68.51;95178.47;5084762;28;20116;-81
2022/01/08 09:26:07;;;;;;;5.18;2.83;;;;;;;5.55;68.44;95179.19;5085948;28;20028;-80
2022/01/08 09:28:33;;;;;;;5.78;2.88;;;;;;;5.65;67.77;95173.81;5069203;28;20020;-79
2022/01/08 09:30:59;;;;;;;6.55;2.95;;;;;;;5.68;67.61;95177.00;5086489;28;20032;-79
2022/01/08 09:33:25;;;;;;;5.60;3.10;;;;;;;5.56;68.17;95170.25;5086007;28;20478;-77
2022/01/08 09:35:50;;;;;;;5.45;3.35;;;;;;;5.72;67.24;95155.41;5078972;28;20031;-80
2022/01/08 09:38:15;;;;;;;4.22;2.92;;;;;;;5.57;67.15;95161.28;5067141;28;20042;-79
2022/01/08 09:40:41;;;;;;;6.15;2.78;;;;;;;5.45;68.08;95155.34;5067155;28;20044;-80
2022/01/08 09:43:06;;;;;;;5.47;3.25;;;;;;;5.59;68.60;95153.97;5070330;28;20379;-79
2022/01/08 09:45:32;;;;;;;5.50;3.00;;;;;;;5.48;68.23;95156.88;5082259;28;20020;-78
2022/01/08 09:47:57;;;;;;;4.35;3.15;;;;;;;5.62;68.52;95155.50;5080247;28;20024;-77
2022/01/08 09:50:23;;;;;;;5.28;2.72;;;;;;;5.62;67.72;95150.16;5066625;28;20043;-77
2022/01/08 09:52:53;;;;;;;7.60;3.10;;;;;;;5.65;68.11;95147.19;5085563;28;20791;-80
2022/01/08 09:55:19;;;;;;;5.18;2.85;;;;;;;5.59;68.39;95151.31;5083862;28;20047;-78
2022/01/08 09:57:44;;;;;;;5.53;3.10;;;;;;;5.66;68.04;95138.22;5084249;28;20410;-78
2022/01/08 10:00:14;;;;;;;5.20;2.80;;;;;;;5.61;68.32;95145.84;5065887;28;20036;-80
2022/01/08 10:02:40;;;;;;;6.38;2.67;;;;;;;5.53;68.49;95139.44;5065285;28;20085;-79
2022/01/08 10:05:10;;;;;;;4.72;2.95;;;;;;;5.52;67.85;95143.09;5063775;28;20028;-78
2022/01/08 10:07:35;;;;;;;5.15;3.17;;;;;;;5.39;68.68;95129.34;5064240;28;20048;-80
2022/01/08 10:10:13;;;;;;;4.80;3.08;;;;;;;5.38;68.74;95125.03;5078816;28;20028;-80
2022/01/08 10:12:44;;;;;;;4.97;2.83;;;;;;;5.31;69.08;95120.31;5076545;28;20059;-81
2022/01/08 10:17:55;;;;;;;5.70;3.20;;;;;;;5.43;69.40;95115.59;5080710;28;20031;-79
2022/01/08 10:20:34;;;;;;;4.70;2.78;;;;;;;5.51;68.53;95120.16;5086331;28;20499;-80
2022/01/08 10:23:23;;;;;;;4.40;2.50;;;;;;;5.50;68.62;95097.19;5083675;28;20024;-79
2022/01/08 10:26:08;;;;;;;4.40;2.70;;;;;;;5.56;68.68;95101.91;5083329;28;20411;-80
2022/01/08 10:28:41;;;;;;;4.03;2.70;;;;;;;5.59;68.15;95103.44;5085002;28;20024;-78
2022/01/08 10:31:07;;;;;;;5.72;2.95;;;;;;;5.46;67.98;95090.53;5073439;28;20246;-78
2022/01/08 10:33:33;;;;;;;4.70;2.83;;;;;;;5.56;67.46;95096.56;5079104;28;20109;-79
2022/01/08 10:35:58;;;;;;;5.57;3.67;;;;;;;5.67;68.33;95092.81;5064169;28;20094;-80
2022/01/08 10:38:26;;;;;;;5.82;2.92;;;;;;;5.74;67.22;95098.38;5064855;28;20090;-80
2022/01/08 10:40:52;;;;;;;3.90;3.10;;;;;;;5.71;67.45;95089.88;5076320;28;20088;-79
2022/01/08 10:43:31;;;;;;;5.32;3.20;;;;;;;5.45;68.69;95072.88;5085241;28;20024;-79
2022/01/08 10:46:16;;;;;;;6.22;4.00;;;;;;;5.50;68.11;95083.88;5073114;28;20025;-79
2022/01/08 10:48:51;;;;;;;4.63;3.40;;;;;;;5.55;67.89;95078.09;5063673;28;20024;-79
2022/01/08 10:51:25;;;;;;;4.32;3.33;;;;;;;5.35;68.13;95078.31;5077396;28;20020;-78
2022/01/08 10:54:06;;;;;;;6.30;3.83;;;;;;;5.31;68.00;95084.91;5082877;28;20039;-80
2022/01/08 10:56:40;;;;;;;4.93;3.55;;;;;;;5.35;68.77;95066.81;5084249;28;20494;-79
2022/01/08 10:59:26;;;;;;;9.18;4.43;;;;;;;5.40;67.99;95069.88;5085640;28;20024;-79
2022/01/08 11:01:58;;;;;;;7.55;3.78;;;;;;;5.39;68.42;95073.50;5082654;28;20054;-77
2022/01/08 11:04:35;;;;;;;5.55;3.78;;;;;;;5.39;68.71;95068.16;5083015;28;20480;-79
2022/01/08 11:07:11;;;;;;;6.63;4.13;;;;;;;5.40;67.86;95060.03;5085086;28;20024;-80
2022/01/08 11:09:37;;;;;;;5.38;3.65;;;;;;;5.53;67.53;95064.97;5083934;28;20084;-80
2022/01/08 11:12:04;;;;;;;6.13;3.63;;;;;;;5.52;68.13;95057.13;5084899;28;20089;-79
2022/01/08 11:14:47;;;;;;;6.05;3.63;;;;;;;5.57;67.26;95066.34;5065063;28;20653;-79
2022/01/08 11:17:14;;;;;;;;;;;;;;;5.57;67.60;95050.38;5085033;28;20028;-81
2022/01/08 11:19:42;;;;;;;5.63;2.83;;;;;;;5.50;67.50;95065.28;5083754;28;20315;-81
2022/01/08 11:22:07;;;;;;;5.75;3.58;;;;;;;5.51;67.48;95053.66;5066381;28;20036;-79
2022/01/08 11:24:33;;;;;;;5.13;3.72;;;;;;;5.59;67.39;95058.19;5065761;28;20030;-81
2022/01/08 11:26:58;;;;;;;4.80;3.53;;;;;;;5.57;67.16;95050.38;5065389;28;20032;-82
2022/01/08 11:29:23;;;;;;;5.07;3.35;;;;;;;5.61;67.39;95050.06;5066861;28;20020;-81
2022/01/08 11:31:54;;;;;;;4.97;3.50;;;;;;;5.69;67.12;95052.78;5082930;28;20032;-82
2022/01/08 11:34:22;;;;;;;4.93;3.60;;;;;;;5.72;67.10;95046.31;5065873;28;20077;-78
2022/01/08 11:36:49;;;;;;;6.85;4.18;;;;;;;5.66;67.69;95047.75;5064477;28;20031;-79
2022/01/08 11:39:15;;;;;;;6.00;4.10;;;;;;;5.80;67.19;95035.72;5060243;28;20054;-80
2022/01/08 11:41:40;;;;;;;6.38;3.75;;;;;;;5.78;67.51;95038.53;5082953;28;20020;-79
2022/01/08 11:44:06;;;;;;;5.88;3.92;;;;;;;5.93;66.21;95035.28;5066512;28;20411;-80
2022/01/08 11:46:34;;;;;;;5.47;3.58;;;;;;;5.88;66.55;95034.94;5066078;28;20217;-79
2022/01/08 11:48:59;;;;;;;7.13;3.70;;;;;;;5.93;66.34;95019.31;5085777;28;20027;-78
2022/01/08 11:51:27;;;;;;;6.57;3.50;;;;;;;5.98;66.32;95024.16;5051355;28;20040;-78
2022/01/08 11:53:57;;;;;;;6.20;3.50;;;;;;;5.87;66.46;95025.28;5079911;28;20514;-78
2022/01/08 11:56:25;;;;;;;5.43;3.40;;;;;;;5.92;66.44;95022.97;5063835;28;20028;-81
2022/01/08 11:59:07;;;;;;;5.28;3.47;;;;;;;6.02;66.33;95025.50;5059884;28;20442;-79
2022/01/08 12:01:32;;;;;;;10.48;4.13;;;;;;;6.14;65.73;95020.78;5084009;28;20077;-79
2022/01/08 12:03:58;;;;;;;6.40;3.85;;;;;;;6.12;66.17;95010.28;5068241;28;20028;-80